sensor_id;sensor_type;location;lat;lon;timestamp;pressure;altitude;pressure_sealevel;temperature;humidity
75298;BME280;63896;45.990;18.688;2023-10-19T00:02:32;100266.47;;;9.84;100.00
75298;BME280;63896;45.990;18.688;2023-10-19T00:05:35;100275.06;;;9.80;100.00
75298;BME280;63896;45.990;18.688;2023-10-19T00:08:38;100257.72;;;9.77;100.00
75298;BME280;63896;45.990;18.688;2023-10-19T00:11:44;100262.69;;;9.67;100.00
75298;BME280;63896;45.990;18.688;2023-10-19T00:14:47;100254.34;;;9.64;100.00
75298;BME280;63896;45.990;18.688;2023-10-19T00:17:49;100247.25;;;9.57;100.00
75298;BME280;63896;45.990;18.688;2023-10-19T00:20:56;100239.31;;;9.57;100.00
75298;BME280;63896;45.990;18.688;2023-10-19T00:23:58;100224.19;;;9.58;100.00
75298;BME280;63896;45.990;18.688;2023-10-19T00:27:07;100221.97;;;9.55;100.00
75298;BME280;63896;45.990;18.688;2023-10-19T00:30:18;100217.69;;;9.54;100.00
75298;BME280;63896;45.990;18.688;2023-10-19T00:33:26;100213.59;;;9.58;100.00
75298;BME280;63896;45.990;18.688;2023-10-19T00:36:31;100212.97;;;9.63;100.00
75298;BME280;63896;45.990;18.688;2023-10-19T00:39:34;100215.59;;;9.69;100.00
75298;BME280;63896;45.990;18.688;2023-10-19T00:42:45;100208.81;;;9.80;100.00
75298;BME280;63896;45.990;18.688;2023-10-19T00:45:55;100214.56;;;10.01;100.00
75298;BME280;63896;45.990;18.688;2023-10-19T00:49:00;100218.25;;;10.00;100.00
75298;BME280;63896;45.990;18.688;2023-10-19T00:52:05;100219.94;;;9.95;100.00
75298;BME280;63896;45.990;18.688;2023-10-19T00:55:15;100218.25;;;10.00;100.00
75298;BME280;63896;45.990;18.688;2023-10-19T00:58:18;100222.91;;;10.05;100.00
75298;BME280;63896;45.990;18.688;2023-10-19T01:01:27;100213.28;;;10.11;100.00
75298;BME280;63896;45.990;18.688;2023-10-19T01:04:32;100204.66;;;10.22;100.00
75298;BME280;63896;45.990;18.688;2023-10-19T01:07:36;100205.88;;;10.26;100.00
75298;BME280;63896;45.990;18.688;2023-10-19T01:10:42;100199.56;;;10.20;100.00
75298;BME280;63896;45.990;18.688;2023-10-19T01:13:48;100198.63;;;10.08;100.00
75298;BME280;63896;45.990;18.688;2023-10-19T01:16:50;100190.47;;;10.10;100.00
75298;BME280;63896;45.990;18.688;2023-10-19T01:19:53;100188.00;;;10.08;100.00
75298;BME280;63896;45.990;18.688;2023-10-19T01:23:02;100175.06;;;10.25;100.00
75298;BME280;63896;45.990;18.688;2023-10-19T01:26:14;100166.81;;;10.15;100.00
75298;BME280;63896;45.990;18.688;2023-10-19T01:29:29;100151.34;;;10.05;100.00
75298;BME280;63896;45.990;18.688;2023-10-19T01:32:31;100155.81;;;10.04;100.00
75298;BME280;63896;45.990;18.688;2023-10-19T01:35:34;100140.38;;;10.01;100.00
75298;BME280;63896;45.990;18.688;2023-10-19T01:38:57;100128.75;;;10.02;100.00
75298;BME280;63896;45.990;18.688;2023-10-19T01:42:13;100123.13;;;10.17;100.00
75298;BME280;63896;45.990;18.688;2023-10-19T01:45:15;100126.41;;;10.19;100.00
75298;BME280;63896;45.990;18.688;2023-10-19T01:48:20;100119.50;;;10.12;100.00
75298;BME280;63896;45.990;18.688;2023-10-19T01:51:36;100111.97;;;10.09;100.00
75298;BME280;63896;45.990;18.688;2023-10-19T01:54:42;100108.28;;;10.10;100.00
75298;BME280;63896;45.990;18.688;2023-10-19T01:57:45;100102.34;;;10.14;100.00
75298;BME280;63896;45.990;18.688;2023-10-19T02:00:48;100109.81;;;10.24;100.00
75298;BME280;63896;45.990;18.688;2023-10-19T02:03:57;100111.88;;;10.22;100.00
75298;BME280;63896;45.990;18.688;2023-10-19T02:07:01;100101.81;;;10.30;100.00
75298;BME280;63896;45.990;18.688;2023-10-19T02:10:06;100090.75;;;10.33;100.00
75298;BME280;63896;45.990;18.688;2023-10-19T02:13:10;100086.47;;;10.32;100.00
75298;BME280;63896;45.990;18.688;2023-10-19T02:16:14;100092.75;;;10.38;100.00
75298;BME280;63896;45.990;18.688;2023-10-19T02:19:19;100091.41;;;10.47;100.00
75298;BME280;63896;45.990;18.688;2023-10-19T02:22:22;100086.19;;;10.40;100.00
75298;BME280;63896;45.990;18.688;2023-10-19T02:25:26;100083.00;;;10.32;100.00
75298;BME280;63896;45.990;18.688;2023-10-19T02:28:39;100082.97;;;10.14;100.00
75298;BME280;63896;45.990;18.688;2023-10-19T02:31:42;100088.00;;;10.22;100.00
75298;BME280;63896;45.990;18.688;2023-10-19T02:34:45;100081.19;;;10.08;100.00
75298;BME280;63896;45.990;18.688;2023-10-19T02:37:48;100078.22;;;9.97;100.00
75298;BME280;63896;45.990;18.688;2023-10-19T02:40:51;100078.22;;;9.97;100.00
75298;BME280;63896;45.990;18.688;2023-10-19T02:43:54;100072.19;;;10.09;100.00
75298;BME280;63896;45.990;18.688;2023-10-19T02:47:12;100074.72;;;10.03;100.00
75298;BME280;63896;45.990;18.688;2023-10-19T02:50:15;100073.56;;;10.18;100.00
75298;BME280;63896;45.990;18.688;2023-10-19T02:53:20;100059.00;;;10.27;100.00
75298;BME280;63896;45.990;18.688;2023-10-19T02:56:23;100060.41;;;10.29;100.00
75298;BME280;63896;45.990;18.688;2023-10-19T02:59:27;100065.34;;;10.44;100.00
75298;BME280;63896;45.990;18.688;2023-10-19T03:02:34;100067.78;;;10.45;100.00
75298;BME280;63896;45.990;18.688;2023-10-19T03:05:39;100073.63;;;10.54;100.00
75298;BME280;63896;45.990;18.688;2023-10-19T03:08:44;100057.31;;;10.50;100.00
75298;BME280;63896;45.990;18.688;2023-10-19T03:11:49;100046.69;;;10.50;100.00
75298;BME280;63896;45.990;18.688;2023-10-19T03:14:55;100046.31;;;10.47;100.00
75298;BME280;63896;45.990;18.688;2023-10-19T03:17:58;100046.47;;;10.52;100.00
75298;BME280;63896;45.990;18.688;2023-10-19T03:21:04;100049.94;;;10.52;100.00
75298;BME280;63896;45.990;18.688;2023-10-19T03:24:07;100041.09;;;10.59;100.00
75298;BME280;63896;45.990;18.688;2023-10-19T03:27:16;100040.78;;;10.67;100.00
75298;BME280;63896;45.990;18.688;2023-10-19T03:30:20;100041.28;;;10.75;100.00
75298;BME280;63896;45.990;18.688;2023-10-19T03:33:28;100036.28;;;10.67;100.00
75298;BME280;63896;45.990;18.688;2023-10-19T03:36:31;100033.28;;;10.64;100.00
75298;BME280;63896;45.990;18.688;2023-10-19T03:39:35;100020.38;;;10.67;100.00
75298;BME280;63896;45.990;18.688;2023-10-19T03:42:41;100017.63;;;10.74;100.00
75298;BME280;63896;45.990;18.688;2023-10-19T03:45:44;100008.78;;;10.80;100.00
75298;BME280;63896;45.990;18.688;2023-10-19T03:48:53;100007.72;;;10.69;100.00
75298;BME280;63896;45.990;18.688;2023-10-19T03:52:01;100009.81;;;10.79;100.00
75298;BME280;63896;45.990;18.688;2023-10-19T03:55:04;100013.06;;;10.81;100.00
75298;BME280;63896;45.990;18.688;2023-10-19T03:58:20;100013.75;;;10.76;100.00
75298;BME280;63896;45.990;18.688;2023-10-19T04:01:25;100002.16;;;10.71;100.00
75298;BME280;63896;45.990;18.688;2023-10-19T04:04:27;99994.50;;;10.63;100.00
75298;BME280;63896;45.990;18.688;2023-10-19T04:07:32;99984.63;;;10.70;100.00
75298;BME280;63896;45.990;18.688;2023-10-19T04:10:35;99981.22;;;10.81;100.00
75298;BME280;63896;45.990;18.688;2023-10-19T04:13:38;99975.09;;;10.80;100.00
75298;BME280;63896;45.990;18.688;2023-10-19T04:16:42;99952.59;;;10.83;100.00
75298;BME280;63896;45.990;18.688;2023-10-19T04:19:48;99946.38;;;10.89;100.00
75298;BME280;63896;45.990;18.688;2023-10-19T04:22:54;99945.66;;;10.82;100.00
75298;BME280;63896;45.990;18.688;2023-10-19T04:25:58;99949.94;;;10.83;100.00
75298;BME280;63896;45.990;18.688;2023-10-19T04:29:01;99951.69;;;10.77;100.00
75298;BME280;63896;45.990;18.688;2023-10-19T04:32:11;99950.91;;;10.88;100.00
75298;BME280;63896;45.990;18.688;2023-10-19T04:35:17;99950.97;;;10.82;100.00
75298;BME280;63896;45.990;18.688;2023-10-19T04:38:26;99950.31;;;10.86;100.00
75298;BME280;63896;45.990;18.688;2023-10-19T04:41:29;99953.22;;;10.85;100.00
75298;BME280;63896;45.990;18.688;2023-10-19T04:44:32;99947.91;;;10.85;100.00
75298;BME280;63896;45.990;18.688;2023-10-19T04:47:37;99942.81;;;10.83;100.00
75298;BME280;63896;45.990;18.688;2023-10-19T04:50:40;99933.00;;;10.84;100.00
75298;BME280;63896;45.990;18.688;2023-10-19T04:53:44;99939.09;;;10.73;100.00
75298;BME280;63896;45.990;18.688;2023-10-19T04:56:47;99944.91;;;10.63;100.00
75298;BME280;63896;45.990;18.688;2023-10-19T04:59:50;99934.63;;;10.55;100.00
75298;BME280;63896;45.990;18.688;2023-10-19T05:02:53;99930.38;;;10.54;100.00
75298;BME280;63896;45.990;18.688;2023-10-19T05:05:56;99943.63;;;10.54;100.00
75298;BME280;63896;45.990;18.688;2023-10-19T05:08:59;99931.25;;;10.48;100.00
75298;BME280;63896;45.990;18.688;2023-10-19T05:12:02;99930.22;;;10.49;100.00
75298;BME280;63896;45.990;18.688;2023-10-19T05:15:05;99946.44;;;10.41;100.00
75298;BME280;63896;45.990;18.688;2023-10-19T05:18:08;99948.66;;;10.44;100.00
75298;BME280;63896;45.990;18.688;2023-10-19T05:21:11;99942.53;;;10.43;100.00
75298;BME280;63896;45.990;18.688;2023-10-19T05:24:15;99935.06;;;10.52;100.00
75298;BME280;63896;45.990;18.688;2023-10-19T05:27:18;99936.25;;;10.56;100.00
75298;BME280;63896;45.990;18.688;2023-10-19T05:30:20;99932.25;;;10.65;100.00
75298;BME280;63896;45.990;18.688;2023-10-19T05:33:26;99928.81;;;10.76;100.00
75298;BME280;63896;45.990;18.688;2023-10-19T05:36:29;99945.94;;;10.92;100.00
75298;BME280;63896;45.990;18.688;2023-10-19T05:39:32;99937.06;;;10.98;100.00
75298;BME280;63896;45.990;18.688;2023-10-19T05:42:36;99935.38;;;11.15;100.00
75298;BME280;63896;45.990;18.688;2023-10-19T05:45:39;99930.63;;;11.17;100.00
75298;BME280;63896;45.990;18.688;2023-10-19T05:48:43;99922.81;;;11.45;100.00
75298;BME280;63896;45.990;18.688;2023-10-19T05:51:46;99922.47;;;11.65;100.00
75298;BME280;63896;45.990;18.688;2023-10-19T05:54:48;99918.66;;;11.61;100.00
75298;BME280;63896;45.990;18.688;2023-10-19T05:57:56;99921.41;;;11.66;100.00
75298;BME280;63896;45.990;18.688;2023-10-19T06:00:59;99923.63;;;11.81;100.00
75298;BME280;63896;45.990;18.688;2023-10-19T06:04:01;99905.91;;;11.98;100.00
75298;BME280;63896;45.990;18.688;2023-10-19T06:07:04;99906.56;;;12.05;100.00
75298;BME280;63896;45.990;18.688;2023-10-19T06:10:11;99909.69;;;12.14;100.00
75298;BME280;63896;45.990;18.688;2023-10-19T06:13:18;99906.94;;;12.37;100.00
75298;BME280;63896;45.990;18.688;2023-10-19T06:16:21;99908.19;;;12.46;100.00
75298;BME280;63896;45.990;18.688;2023-10-19T06:19:24;99908.63;;;12.71;100.00
75298;BME280;63896;45.990;18.688;2023-10-19T06:22:27;99912.72;;;13.07;100.00
75298;BME280;63896;45.990;18.688;2023-10-19T06:25:32;99903.69;;;13.25;100.00
75298;BME280;63896;45.990;18.688;2023-10-19T06:28:35;99900.50;;;13.45;100.00
75298;BME280;63896;45.990;18.688;2023-10-19T06:31:41;99898.56;;;13.57;100.00
75298;BME280;63896;45.990;18.688;2023-10-19T06:34:46;99895.06;;;13.73;100.00
75298;BME280;63896;45.990;18.688;2023-10-19T06:37:49;99894.00;;;13.74;100.00
75298;BME280;63896;45.990;18.688;2023-10-19T06:40:52;99893.19;;;13.95;100.00
75298;BME280;63896;45.990;18.688;2023-10-19T06:43:55;99891.31;;;14.17;100.00
75298;BME280;63896;45.990;18.688;2023-10-19T06:46:58;99896.28;;;14.30;100.00
75298;BME280;63896;45.990;18.688;2023-10-19T06:50:01;99884.56;;;14.10;100.00
75298;BME280;63896;45.990;18.688;2023-10-19T06:53:05;99868.00;;;14.51;100.00
75298;BME280;63896;45.990;18.688;2023-10-19T06:56:08;99869.38;;;14.91;100.00
75298;BME280;63896;45.990;18.688;2023-10-19T06:59:11;99867.75;;;15.21;100.00
75298;BME280;63896;45.990;18.688;2023-10-19T07:02:13;99864.69;;;15.45;100.00
75298;BME280;63896;45.990;18.688;2023-10-19T07:05:17;99871.69;;;15.98;96.01
75298;BME280;63896;45.990;18.688;2023-10-19T07:08:23;99873.00;;;15.90;96.03
75298;BME280;63896;45.990;18.688;2023-10-19T07:11:26;99874.19;;;15.62;97.26
75298;BME280;63896;45.990;18.688;2023-10-19T07:14:32;99864.81;;;16.32;93.00
75298;BME280;63896;45.990;18.688;2023-10-19T07:17:37;99860.34;;;16.88;90.54
75298;BME280;63896;45.990;18.688;2023-10-19T07:20:43;99860.09;;;16.95;89.45
75298;BME280;63896;45.990;18.688;2023-10-19T07:23:46;99848.59;;;16.94;88.48
75298;BME280;63896;45.990;18.688;2023-10-19T07:26:52;99852.38;;;17.98;82.73
75298;BME280;63896;45.990;18.688;2023-10-19T07:30:07;99841.00;;;17.57;83.50
75298;BME280;63896;45.990;18.688;2023-10-19T07:33:12;99840.50;;;17.25;85.83
75298;BME280;63896;45.990;18.688;2023-10-19T07:36:23;99844.72;;;18.25;81.33
75298;BME280;63896;45.990;18.688;2023-10-19T07:39:27;99840.19;;;18.65;79.41
75298;BME280;63896;45.990;18.688;2023-10-19T07:42:32;99832.84;;;19.33;76.04
75298;BME280;63896;45.990;18.688;2023-10-19T07:45:37;99825.44;;;20.84;67.27
75298;BME280;63896;45.990;18.688;2023-10-19T07:48:40;99825.25;;;19.64;70.40
75298;BME280;63896;45.990;18.688;2023-10-19T07:51:47;99820.16;;;20.61;67.44
75298;BME280;63896;45.990;18.688;2023-10-19T07:54:50;99818.31;;;22.97;58.87
75298;BME280;63896;45.990;18.688;2023-10-19T07:57:53;99809.97;;;24.11;55.65
75298;BME280;63896;45.990;18.688;2023-10-19T08:00:57;99790.81;;;25.32;50.91
75298;BME280;63896;45.990;18.688;2023-10-19T08:04:10;99799.44;;;25.34;49.02
75298;BME280;63896;45.990;18.688;2023-10-19T08:07:14;99793.97;;;24.96;50.19
75298;BME280;63896;45.990;18.688;2023-10-19T08:10:20;99795.63;;;26.14;47.55
75298;BME280;63896;45.990;18.688;2023-10-19T08:13:23;99792.78;;;26.85;44.56
75298;BME280;63896;45.990;18.688;2023-10-19T08:16:31;99783.88;;;27.81;40.21
75298;BME280;63896;45.990;18.688;2023-10-19T08:19:33;99780.13;;;27.01;40.75
75298;BME280;63896;45.990;18.688;2023-10-19T08:22:36;99779.88;;;28.03;38.46
75298;BME280;63896;45.990;18.688;2023-10-19T08:25:39;99759.84;;;27.47;39.59
75298;BME280;63896;45.990;18.688;2023-10-19T08:28:57;99756.06;;;27.88;39.49
75298;BME280;63896;45.990;18.688;2023-10-19T08:32:03;99754.22;;;28.32;37.55
75298;BME280;63896;45.990;18.688;2023-10-19T08:35:08;99751.88;;;27.06;39.54
75298;BME280;63896;45.990;18.688;2023-10-19T08:38:13;99756.31;;;25.32;43.49
75298;BME280;63896;45.990;18.688;2023-10-19T08:41:16;99747.59;;;23.94;46.84
75298;BME280;63896;45.990;18.688;2023-10-19T08:44:20;99752.97;;;22.59;51.02
75298;BME280;63896;45.990;18.688;2023-10-19T08:47:23;99747.38;;;22.55;51.62
75298;BME280;63896;45.990;18.688;2023-10-19T08:50:32;99744.91;;;22.67;51.02
75298;BME280;63896;45.990;18.688;2023-10-19T08:53:39;99748.50;;;24.76;46.50
75298;BME280;63896;45.990;18.688;2023-10-19T08:56:43;99750.50;;;23.98;47.58
75298;BME280;63896;45.990;18.688;2023-10-19T08:59:47;99748.06;;;22.39;51.73
75298;BME280;63896;45.990;18.688;2023-10-19T09:02:49;99739.94;;;21.67;54.00
75298;BME280;63896;45.990;18.688;2023-10-19T09:05:52;99737.41;;;21.98;53.66
75298;BME280;63896;45.990;18.688;2023-10-19T09:08:57;99736.72;;;21.92;53.26
75298;BME280;63896;45.990;18.688;2023-10-19T09:12:03;99729.19;;;23.00;50.55
75298;BME280;63896;45.990;18.688;2023-10-19T09:15:21;99720.88;;;23.36;49.79
75298;BME280;63896;45.990;18.688;2023-10-19T09:18:24;99722.25;;;22.10;52.28
75298;BME280;63896;45.990;18.688;2023-10-19T09:21:31;99721.50;;;21.96;53.95
75298;BME280;63896;45.990;18.688;2023-10-19T09:24:35;99722.19;;;21.52;55.54
75298;BME280;63896;45.990;18.688;2023-10-19T09:27:39;99716.72;;;21.79;54.33
75298;BME280;63896;45.990;18.688;2023-10-19T09:30:42;99711.41;;;22.24;53.63
75298;BME280;63896;45.990;18.688;2023-10-19T09:33:46;99705.03;;;23.78;49.55
75298;BME280;63896;45.990;18.688;2023-10-19T09:36:50;99712.72;;;24.18;48.47
75298;BME280;63896;45.990;18.688;2023-10-19T09:39:53;99702.94;;;24.52;47.36
75298;BME280;63896;45.990;18.688;2023-10-19T09:42:57;99720.34;;;23.91;48.37
75298;BME280;63896;45.990;18.688;2023-10-19T09:46:06;99702.00;;;23.79;49.25
75298;BME280;63896;45.990;18.688;2023-10-19T09:49:10;99706.13;;;23.51;50.10
75298;BME280;63896;45.990;18.688;2023-10-19T09:52:16;99694.16;;;22.95;51.11
75298;BME280;63896;45.990;18.688;2023-10-19T09:55:26;99694.72;;;22.53;52.29
75298;BME280;63896;45.990;18.688;2023-10-19T09:58:44;99695.88;;;22.91;51.75
75298;BME280;63896;45.990;18.688;2023-10-19T10:08:45;99675.31;;;28.11;38.24
75298;BME280;63896;45.990;18.688;2023-10-19T10:11:52;99648.69;;;29.30;36.39
75298;BME280;63896;45.990;18.688;2023-10-19T10:15:02;99644.75;;;28.65;37.07
75298;BME280;63896;45.990;18.688;2023-10-19T10:18:12;99647.00;;;27.24;39.39
75298;BME280;63896;45.990;18.688;2023-10-19T10:21:43;99649.53;;;25.40;44.36
75298;BME280;63896;45.990;18.688;2023-10-19T10:25:07;99638.41;;;24.66;45.72
75298;BME280;63896;45.990;18.688;2023-10-19T10:28:14;99635.63;;;24.37;46.31
75298;BME280;63896;45.990;18.688;2023-10-19T10:31:21;99621.09;;;25.17;44.98
75298;BME280;63896;45.990;18.688;2023-10-19T10:37:53;99618.16;;;23.83;47.20
75298;BME280;63896;45.990;18.688;2023-10-19T10:40:57;99610.38;;;23.47;48.38
75298;BME280;63896;45.990;18.688;2023-10-19T10:44:00;99608.41;;;23.04;50.22
75298;BME280;63896;45.990;18.688;2023-10-19T10:47:03;99603.00;;;23.13;50.48
75298;BME280;63896;45.990;18.688;2023-10-19T10:50:06;99588.88;;;23.50;49.97
75298;BME280;63896;45.990;18.688;2023-10-19T10:53:13;99581.72;;;23.46;49.77
75298;BME280;63896;45.990;18.688;2023-10-19T10:56:19;99579.03;;;24.35;47.43
75298;BME280;63896;45.990;18.688;2023-10-19T10:59:22;99581.66;;;25.11;46.21
75298;BME280;63896;45.990;18.688;2023-10-19T11:02:25;99588.06;;;25.56;44.08
75298;BME280;63896;45.990;18.688;2023-10-19T11:05:27;99579.88;;;25.77;43.38
75298;BME280;63896;45.990;18.688;2023-10-19T11:08:30;99592.91;;;25.72;43.93
75298;BME280;63896;45.990;18.688;2023-10-19T11:11:38;99580.09;;;25.72;43.69
75298;BME280;63896;45.990;18.688;2023-10-19T11:14:54;99580.03;;;25.93;43.35
75298;BME280;63896;45.990;18.688;2023-10-19T11:17:58;99561.44;;;28.24;39.13
75298;BME280;63896;45.990;18.688;2023-10-19T11:21:10;99566.50;;;29.04;37.93
75298;BME280;63896;45.990;18.688;2023-10-19T11:24:24;99558.28;;;28.22;38.76
75298;BME280;63896;45.990;18.688;2023-10-19T11:27:28;99565.13;;;27.32;40.19
75298;BME280;63896;45.990;18.688;2023-10-19T11:30:32;99550.88;;;27.79;39.32
75298;BME280;63896;45.990;18.688;2023-10-19T11:33:35;99551.47;;;27.44;39.90
75298;BME280;63896;45.990;18.688;2023-10-19T11:36:39;99546.50;;;26.70;41.83
75298;BME280;63896;45.990;18.688;2023-10-19T11:39:42;99551.22;;;26.13;43.11
75298;BME280;63896;45.990;18.688;2023-10-19T11:42:45;99549.56;;;25.54;44.79
75298;BME280;63896;45.990;18.688;2023-10-19T11:45:47;99545.53;;;25.19;45.81
75298;BME280;63896;45.990;18.688;2023-10-19T11:48:50;99538.53;;;27.02;41.86
75298;BME280;63896;45.990;18.688;2023-10-19T11:51:53;99541.97;;;26.26;43.25
75298;BME280;63896;45.990;18.688;2023-10-19T11:54:56;99521.09;;;28.64;39.17
75298;BME280;63896;45.990;18.688;2023-10-19T11:58:05;99526.84;;;28.12;39.83
75298;BME280;63896;45.990;18.688;2023-10-19T12:01:13;99524.97;;;28.63;37.91
75298;BME280;63896;45.990;18.688;2023-10-19T12:04:43;99517.69;;;29.21;37.61
75298;BME280;63896;45.990;18.688;2023-10-19T12:07:50;99514.28;;;29.66;36.56
75298;BME280;63896;45.990;18.688;2023-10-19T12:10:54;99501.81;;;29.88;36.88
75298;BME280;63896;45.990;18.688;2023-10-19T12:13:57;99492.09;;;28.25;39.97
75298;BME280;63896;45.990;18.688;2023-10-19T12:17:02;99496.00;;;28.94;38.47
75298;BME280;63896;45.990;18.688;2023-10-19T12:20:05;99489.41;;;30.17;36.53
75298;BME280;63896;45.990;18.688;2023-10-19T12:23:10;99494.38;;;29.47;36.97
75298;BME280;63896;45.990;18.688;2023-10-19T12:26:13;99480.22;;;28.68;38.55
75298;BME280;63896;45.990;18.688;2023-10-19T12:29:17;99483.78;;;28.88;38.29
75298;BME280;63896;45.990;18.688;2023-10-19T12:32:24;99469.34;;;29.25;37.18
75298;BME280;63896;45.990;18.688;2023-10-19T12:35:28;99467.59;;;29.98;36.47
75298;BME280;63896;45.990;18.688;2023-10-19T12:38:46;99467.56;;;29.75;36.39
75298;BME280;63896;45.990;18.688;2023-10-19T12:41:49;99478.22;;;29.00;37.45
75298;BME280;63896;45.990;18.688;2023-10-19T12:44:52;99473.44;;;27.24;41.20
75298;BME280;63896;45.990;18.688;2023-10-19T12:47:55;99470.28;;;28.09;38.74
75298;BME280;63896;45.990;18.688;2023-10-19T12:50:59;99469.81;;;27.20;39.75
75298;BME280;63896;45.990;18.688;2023-10-19T12:54:03;99472.78;;;25.90;42.04
75298;BME280;63896;45.990;18.688;2023-10-19T12:57:06;99467.44;;;25.16;45.03
75298;BME280;63896;45.990;18.688;2023-10-19T13:00:10;99462.91;;;25.41;44.83
75298;BME280;63896;45.990;18.688;2023-10-19T13:03:35;99454.06;;;26.74;41.91
75298;BME280;63896;45.990;18.688;2023-10-19T13:06:41;99465.94;;;26.93;41.17
75298;BME280;63896;45.990;18.688;2023-10-19T13:09:43;99449.94;;;28.07;38.83
75298;BME280;63896;45.990;18.688;2023-10-19T13:12:47;99446.75;;;28.05;38.91
75298;BME280;63896;45.990;18.688;2023-10-19T13:15:50;99450.78;;;27.48;40.18
75298;BME280;63896;45.990;18.688;2023-10-19T13:18:53;99439.97;;;27.67;40.42
75298;BME280;63896;45.990;18.688;2023-10-19T13:21:56;99445.34;;;28.77;37.64
75298;BME280;63896;45.990;18.688;2023-10-19T13:25:03;99435.84;;;28.71;38.14
75298;BME280;63896;45.990;18.688;2023-10-19T13:28:10;99428.25;;;26.95;41.46
75298;BME280;63896;45.990;18.688;2023-10-19T13:31:13;99430.06;;;25.67;44.55
75298;BME280;63896;45.990;18.688;2023-10-19T13:34:19;99428.84;;;25.43;45.61
75298;BME280;63896;45.990;18.688;2023-10-19T13:37:21;99419.66;;;26.17;44.25
75298;BME280;63896;45.990;18.688;2023-10-19T13:40:26;99419.28;;;25.25;46.69
75298;BME280;63896;45.990;18.688;2023-10-19T13:43:32;99410.31;;;24.92;47.18
75298;BME280;63896;45.990;18.688;2023-10-19T13:46:38;99404.81;;;24.38;49.37
75298;BME280;63896;45.990;18.688;2023-10-19T13:49:41;99407.91;;;24.28;49.42
75298;BME280;63896;45.990;18.688;2023-10-19T13:52:43;99407.63;;;23.83;50.93
75298;BME280;63896;45.990;18.688;2023-10-19T13:55:46;99404.41;;;23.52;52.15
75298;BME280;63896;45.990;18.688;2023-10-19T13:58:51;99397.03;;;23.61;51.56
75298;BME280;63896;45.990;18.688;2023-10-19T14:01:54;99392.28;;;23.41;52.14
75298;BME280;63896;45.990;18.688;2023-10-19T14:04:57;99395.34;;;23.39;52.84
75298;BME280;63896;45.990;18.688;2023-10-19T14:08:04;99394.56;;;23.47;53.00
75298;BME280;63896;45.990;18.688;2023-10-19T14:11:08;99395.06;;;23.32;53.97
75298;BME280;63896;45.990;18.688;2023-10-19T14:14:12;99381.81;;;23.31;53.28
75298;BME280;63896;45.990;18.688;2023-10-19T14:17:15;99382.44;;;23.45;53.51
75298;BME280;63896;45.990;18.688;2023-10-19T14:20:18;99369.69;;;23.45;53.66
75298;BME280;63896;45.990;18.688;2023-10-19T14:23:21;99364.13;;;23.33;53.64
75298;BME280;63896;45.990;18.688;2023-10-19T14:26:24;99368.09;;;23.44;53.89
75298;BME280;63896;45.990;18.688;2023-10-19T14:29:30;99362.50;;;23.41;53.62
75298;BME280;63896;45.990;18.688;2023-10-19T14:32:40;99361.28;;;23.30;54.26
75298;BME280;63896;45.990;18.688;2023-10-19T14:36:00;99361.63;;;23.19;54.93
75298;BME280;63896;45.990;18.688;2023-10-19T14:39:03;99363.09;;;23.17;55.25
75298;BME280;63896;45.990;18.688;2023-10-19T14:42:07;99357.53;;;22.96;55.53
75298;BME280;63896;45.990;18.688;2023-10-19T14:45:15;99362.00;;;22.84;55.98
75298;BME280;63896;45.990;18.688;2023-10-19T14:48:19;99354.84;;;22.79;56.42
75298;BME280;63896;45.990;18.688;2023-10-19T14:51:22;99355.78;;;22.66;57.21
75298;BME280;63896;45.990;18.688;2023-10-19T14:54:27;99358.19;;;22.59;57.53
75298;BME280;63896;45.990;18.688;2023-10-19T14:57:33;99360.72;;;22.38;58.18
75298;BME280;63896;45.990;18.688;2023-10-19T15:00:36;99348.00;;;22.39;58.40
75298;BME280;63896;45.990;18.688;2023-10-19T15:03:48;99349.59;;;22.40;58.23
75298;BME280;63896;45.990;18.688;2023-10-19T15:06:57;99343.06;;;22.23;58.69
75298;BME280;63896;45.990;18.688;2023-10-19T15:10:02;99341.94;;;22.33;58.85
75298;BME280;63896;45.990;18.688;2023-10-19T15:13:05;99340.84;;;22.34;58.84
75298;BME280;63896;45.990;18.688;2023-10-19T15:16:11;99343.69;;;22.38;58.53
75298;BME280;63896;45.990;18.688;2023-10-19T15:19:15;99340.34;;;22.32;58.92
75298;BME280;63896;45.990;18.688;2023-10-19T15:22:20;99332.72;;;22.25;59.45
75298;BME280;63896;45.990;18.688;2023-10-19T15:25:25;99333.50;;;22.26;59.35
75298;BME280;63896;45.990;18.688;2023-10-19T15:28:29;99327.63;;;22.15;59.69
75298;BME280;63896;45.990;18.688;2023-10-19T15:31:35;99332.34;;;22.01;60.15
75298;BME280;63896;45.990;18.688;2023-10-19T15:34:41;99327.75;;;21.93;60.36
75298;BME280;63896;45.990;18.688;2023-10-19T15:37:44;99331.81;;;21.82;60.93
75298;BME280;63896;45.990;18.688;2023-10-19T15:40:50;99327.03;;;21.79;61.36
75298;BME280;63896;45.990;18.688;2023-10-19T15:43:53;99330.78;;;21.61;61.98
75298;BME280;63896;45.990;18.688;2023-10-19T15:46:56;99331.03;;;21.42;62.85
75298;BME280;63896;45.990;18.688;2023-10-19T15:49:59;99321.06;;;21.43;63.13
75298;BME280;63896;45.990;18.688;2023-10-19T15:53:02;99333.22;;;21.31;63.93
75298;BME280;63896;45.990;18.688;2023-10-19T15:56:05;99336.97;;;21.22;64.37
75298;BME280;63896;45.990;18.688;2023-10-19T15:59:08;99329.34;;;21.15;64.97
75298;BME280;63896;45.990;18.688;2023-10-19T16:02:11;99332.69;;;20.99;65.42
75298;BME280;63896;45.990;18.688;2023-10-19T16:05:14;99332.94;;;20.88;66.20
75298;BME280;63896;45.990;18.688;2023-10-19T16:08:18;99328.34;;;20.89;66.15
75298;BME280;63896;45.990;18.688;2023-10-19T16:11:21;99325.66;;;20.89;66.37